KAKO

Details ICAO KAKO
Name COLORADO PLAINS REGIONAL
Region United States
Timezone America/Denver (UTC-7.0)
Plans Departing 6
Arriving 2
Stats Elevation 4,714 ft / 1,437 m (AMSL)
Location 40.175632° -103.222029°
Runways 1
Magnetic Variation 7.289° E
Sunrise 2017-12-16 14:10:24 UTC / 2017-12-16 07:10:24 Local
Sunset 2017-12-16 23:29:41 UTC / 2017-12-16 16:29:41 Local
Advertisement - Login to hide

Runways

ID Width Length Bearing (true) Bearing (mag) Surface Threshold Offset Overrun Length
11 100 ft / 30 m 6,989 ft / 2,130 m 119.41° 112.12° Asphalt 0 ft / 0 m 0 ft / 0 m
29 100 ft / 30 m 6,989 ft / 2,130 m 299.43° 292.14° Asphalt 0 ft / 0 m 0 ft / 0 m

Map

Weather


0- 5 10 15 20 25 30 35+ Temperature / ° C

Clouds and Precipitation
Forecast for 2017-12-16 12:00 UTC. Updated 24 minutes ago

Ground ~20,000 ft ~40,000 ft Winds

METAR

KAKO 160853Z AUTO 26006KT 10SM CLR 02/M11 A2976 RMK AO2 SLP066 T00221111 55007

TAF

Not found

Frequencies

Recorded 135.57 MHz ASOS
Unicom 122.80 MHz CTAF/UNICOM
Warning: Do not use this data for real-world aviation or navigation. No guarantee of current accuracy is given.